Main page
METAR-TAF:

METAR-TAF

Airports :

Hawarden Airport

Hawarden, Wales

latitude: 53-10N, longitude: 002-59W, elevation: 10 m

Current weather observation

The report was made 39 minutes ago, at 08:50 UTC
Wind 5 kt from the Northeast, varying between North and East
Temperature 9°C
Humidity 66%
Pressure 1033 hPa
Visibility 10 km or more
Broken clouds at a height of 3500 ft

METAR: EGNR 210850Z 05005KT 010V100 9999 BKN035 09/03 Q1033

Time: 10:29 (09:29 UTC)

Forecast

The report was made 1 hour and 32 minutes ago, at 07:57 UTC
Forecast valid from 21 at 09 UTC to 21 at 18 UTC
Wind 5 kt from the East
Visibility 10 km or more
Scattered clouds at a height of 3500 ft

TAF: EGNR 210757Z 2109/2118 09005KT 9999 SCT035

Weather observations and forecasts of more than 4000 airports (METAR and TAF reports).

The available stations are represented by yellow and red dots on the map.

Hover mouse over dot to see the name of the station.

Then click to see weather observations and forecasts.

To change the map : click on the green buttons with a black cross to zoom in, on the green button with a dash to zoom out, or on the green arrows for adjacent maps.


METAR-TAF: